West Bloomfield, Michigan
Current Conditions -  °F | °C
As of 2:15 AM on Saturday 29 Nov 2014 (Local Time) from KVLL Reporting Station
Overcast Overcast  
Wind Chill: 26°   Ceiling: 6500
Heat Index: 32°   Visibility: 7mi
Dew Point: 26°   Wind: 6mph
Humidity: 78%   Direction: 170°S
Pressure: 30.05"   Gusts: NA
Location:  42.54°N, 83.22°W
Report Text: KVLL 290715Z AUTO 17005KT 7SM SCT033 OVC065 00/M03 A3005 RMK AO2 T00001035
Loading
Personal Weather Stations






























Interactive Weather Map New forecast layout! Learn more

10-Day Weather Forecast

Advertisements
Track Severe Weather on mobile